International Virtual Aviation Organisation

Russian Federation and Kazakhstan MCD

 
URRP 281030Z 11006MPS 9999 FEW/// 08/04 Q1025 R05/CLRD70 NOSIG RMK QFE764/1019
QNH:(hPa/inHg/mmHg)1025 / 30.27 / 769
QFE:(hPa/inHg/mmHg)1015 / 29.96 / 761
Temperature8
Dew Point4
Visibility> 10000
Weather
Cloud Cover
Transition Height900 m./3300 ft.
Transition LevelFL40
SQUAWK